Time;durP1;ratioP1;P1;durP2;ratioP2;P2;SDS_P1;SDS_P2;PMS_P1;PMS_P2;Temp;Humidity;BMP_temperature;BMP_pressure;BME280_temperature;BME280_humidity;BME280_pressure;Samples;Min_cycle;Max_cycle;Signal;HPM_P1;HPM_P2
2021/12/23 00:01:54;;;;;;;87.50;30.40;;;;;;;;;;4213560;28;21427;-77
2021/12/23 00:04:21;;;;;;;76.70;29.07;;;;;;;;;;4216972;28;21758;-78
2021/12/23 00:06:47;;;;;;;70.90;27.57;;;;;;;;;;4183546;28;23035;-76
2021/12/23 00:09:13;;;;;;;78.00;28.07;;;;;;;;;;4205866;28;20269;-77
2021/12/23 00:11:40;;;;;;;83.97;28.77;;;;;;;;;;4200077;28;21016;-76
2021/12/23 00:14:09;;;;;;;68.97;26.80;;;;;;;;;;4200997;28;20236;-78
2021/12/23 00:16:55;;;;;;;76.93;27.17;;;;;;;;;;4208216;28;20261;-75
2021/12/23 00:24:40;;;;;;;74.27;28.07;;;;;;;;;;4222448;28;20325;-75
2021/12/23 00:27:07;;;;;;;77.90;26.90;;;;;;;;;;4215569;28;20637;-83
2021/12/23 00:29:34;;;;;;;81.53;29.40;;;;;;;;;;4212223;28;20330;-76
2021/12/23 00:32:05;;;;;;;71.20;27.53;;;;;;;;;;4211351;28;20301;-75
2021/12/23 00:34:32;;;;;;;74.10;27.07;;;;;;;;;;4189079;28;26377;-75
2021/12/23 00:37:00;;;;;;;77.90;27.13;;;;;;;;;;4197619;28;20238;-75
2021/12/23 00:39:28;;;;;;;73.23;28.00;;;;;;;;;;4206940;28;20243;-76
2021/12/23 00:41:56;;;;;;;67.63;25.23;;;;;;;;;;4201070;28;20300;-77
2021/12/23 00:44:22;;;;;;;74.00;27.13;;;;;;;;;;4197722;28;20489;-73
2021/12/23 00:46:49;;;;;;;82.17;27.47;;;;;;;;;;4196307;28;20301;-73
2021/12/23 00:49:15;;;;;;;78.73;26.73;;;;;;;;;;4227723;28;20228;-76
2021/12/23 00:51:42;;;;;;;72.83;26.27;;;;;;;;;;4202202;28;20244;-74
2021/12/23 00:54:08;;;;;;;68.80;26.30;;;;;;;;;;4208338;28;20238;-78
2021/12/23 00:56:36;;;;;;;81.20;26.07;;;;;;;;;;4204605;28;20303;-78
2021/12/23 00:59:09;;;;;;;71.40;25.80;;;;;;;;;;4204323;28;21725;-78
2021/12/23 01:01:36;;;;;;;67.37;24.80;;;;;;;;;;4196171;28;20404;-74
2021/12/23 01:04:03;;;;;;;76.83;25.07;;;;;;;;;;4205498;28;20263;-74
2021/12/23 01:06:29;;;;;;;62.47;23.23;;;;;;;;;;4193192;28;20236;-76
2021/12/23 01:08:56;;;;;;;67.43;24.63;;;;;;;;;;4206189;28;20288;-78
2021/12/23 01:11:24;;;;;;;69.47;23.87;;;;;;;;;;4207357;28;20240;-74
2021/12/23 01:14:25;;;;;;;66.73;23.13;;;;;;;;;;4209904;28;20229;-76
2021/12/23 01:19:17;;;;;;;63.30;24.37;;;;;;;;;;4204375;28;20361;-76
2021/12/23 01:21:43;;;;;;;65.10;24.53;;;;;;;;;;4200373;28;22250;-73
2021/12/23 01:24:10;;;;;;;61.60;23.17;;;;;;;;;;4214127;28;22350;-74
2021/12/23 01:26:37;;;;;;;63.80;22.27;;;;;;;;;;4204192;28;20233;-76
2021/12/23 01:29:04;;;;;;;65.73;23.70;;;;;;;;;;4214487;28;21165;-78
2021/12/23 01:31:31;;;;;;;60.30;22.73;;;;;;;;;;4215686;28;20232;-74
2021/12/23 01:33:58;;;;;;;66.90;23.17;;;;;;;;;;4202497;28;20367;-77
2021/12/23 01:36:25;;;;;;;64.30;23.43;;;;;;;;;;4201635;28;20227;-76
2021/12/23 01:38:52;;;;;;;62.00;22.50;;;;;;;;;;4217667;28;21568;-77
2021/12/23 01:41:18;;;;;;;69.97;22.87;;;;;;;;;;4200449;28;20333;-76
2021/12/23 01:43:46;;;;;;;66.30;22.63;;;;;;;;;;4214132;28;20349;-74
2021/12/23 01:46:13;;;;;;;66.80;23.57;;;;;;;;;;4219474;28;20246;-73
2021/12/23 01:48:39;;;;;;;71.50;24.40;;;;;;;;;;4195163;28;20402;-75
2021/12/23 01:51:07;;;;;;;57.20;21.40;;;;;;;;;;4206050;28;21176;-75
2021/12/23 01:53:33;;;;;;;61.37;22.60;;;;;;;;;;4201752;28;20339;-75
2021/12/23 01:55:59;;;;;;;57.60;21.07;;;;;;;;;;4195038;28;20263;-75
2021/12/23 01:58:26;;;;;;;61.37;21.90;;;;;;;;;;4200979;28;20233;-75
2021/12/23 02:00:53;;;;;;;58.27;22.27;;;;;;;;;;4204988;28;20263;-74
2021/12/23 02:03:20;;;;;;;59.93;21.73;;;;;;;;;;4198282;28;21223;-75
2021/12/23 02:05:47;;;;;;;56.37;20.87;;;;;;;;;;4207921;28;20236;-74
2021/12/23 02:08:28;;;;;;;57.67;22.40;;;;;;;;;;4223847;28;20244;-74
2021/12/23 02:10:55;;;;;;;57.97;21.07;;;;;;;;;;4194753;28;20255;-75
2021/12/23 02:13:22;;;;;;;56.43;21.83;;;;;;;;;;4230748;28;22319;-73
2021/12/23 02:15:49;;;;;;;56.40;21.10;;;;;;;;;;4192462;28;22982;-75
2021/12/23 02:18:15;;;;;;;62.93;22.60;;;;;;;;;;4194182;28;20525;-74
2021/12/23 02:20:41;;;;;;;60.57;21.87;;;;;;;;;;4202289;28;22227;-74
2021/12/23 02:23:09;;;;;;;59.73;22.03;;;;;;;;;;4200909;28;21275;-77
2021/12/23 02:25:36;;;;;;;60.80;21.70;;;;;;;;;;4195037;28;20240;-74
2021/12/23 02:28:07;;;;;;;57.13;21.20;;;;;;;;;;4200882;28;20380;-78
2021/12/23 02:30:38;;;;;;;54.90;19.97;;;;;;;;;;4197899;28;20282;-76
2021/12/23 02:33:06;;;;;;;58.80;19.47;;;;;;;;;;4190915;28;20241;-74
2021/12/23 02:35:34;;;;;;;53.73;20.17;;;;;;;;;;4200548;28;20617;-73
2021/12/23 02:38:01;;;;;;;61.07;20.30;;;;;;;;;;4209524;28;20245;-77
2021/12/23 02:40:29;;;;;;;55.37;20.47;;;;;;;;;;4194378;28;20227;-74
2021/12/23 02:42:57;;;;;;;57.27;22.53;;;;;;;;;;4193629;28;20613;-76
2021/12/23 02:45:23;;;;;;;50.40;19.90;;;;;;;;;;4185425;28;20245;-75
2021/12/23 02:47:50;;;;;;;55.77;19.60;;;;;;;;;;4192372;28;20235;-76
2021/12/23 02:50:17;;;;;;;54.80;19.80;;;;;;;;;;4189502;28;20326;-75
2021/12/23 02:52:43;;;;;;;58.17;19.73;;;;;;;;;;4203156;28;20831;-76
2021/12/23 02:55:09;;;;;;;54.93;19.93;;;;;;;;;;4210642;28;20262;-75
2021/12/23 02:57:36;;;;;;;52.70;19.67;;;;;;;;;;4192881;28;22890;-75
2021/12/23 03:00:04;;;;;;;57.70;20.87;;;;;;;;;;4191175;28;20243;-73
2021/12/23 03:02:30;;;;;;;53.07;19.87;;;;;;;;;;4190569;28;21328;-77
2021/12/23 03:04:57;;;;;;;61.33;20.50;;;;;;;;;;4197007;28;20396;-76
2021/12/23 03:07:23;;;;;;;55.47;19.90;;;;;;;;;;4197382;28;21008;-77
2021/12/23 03:09:49;;;;;;;55.60;20.33;;;;;;;;;;4202245;28;20473;-72
2021/12/23 03:12:16;;;;;;;55.43;19.43;;;;;;;;;;4204946;28;20233;-80
2021/12/23 03:14:42;;;;;;;58.20;19.57;;;;;;;;;;4194027;28;20240;-74
2021/12/23 03:17:09;;;;;;;49.10;20.87;;;;;;;;;;4191223;28;20302;-77
2021/12/23 03:19:35;;;;;;;60.10;20.27;;;;;;;;;;4192587;28;20242;-75
2021/12/23 03:22:02;;;;;;;54.10;19.90;;;;;;;;;;4193850;28;20253;-74
2021/12/23 03:24:28;;;;;;;61.63;21.30;;;;;;;;;;4189967;28;20248;-75
2021/12/23 03:26:55;;;;;;;56.63;19.97;;;;;;;;;;4194100;28;20653;-77
2021/12/23 03:29:22;;;;;;;61.57;21.50;;;;;;;;;;4186651;28;20314;-77
2021/12/23 03:31:49;;;;;;;49.47;19.10;;;;;;;;;;4193776;28;20355;-74
2021/12/23 03:34:15;;;;;;;56.63;21.17;;;;;;;;;;4203574;28;20227;-76
2021/12/23 03:36:41;;;;;;;54.83;20.23;;;;;;;;;;4203855;28;20233;-76
2021/12/23 03:39:08;;;;;;;58.80;20.43;;;;;;;;;;4194529;28;20425;-77
2021/12/23 03:41:35;;;;;;;61.93;20.93;;;;;;;;;;4194451;28;20358;-74
2021/12/23 03:44:02;;;;;;;63.27;22.80;;;;;;;;;;4201700;28;20228;-76
2021/12/23 03:46:28;;;;;;;53.83;21.23;;;;;;;;;;4185288;28;20236;-78
2021/12/23 03:48:55;;;;;;;68.87;22.90;;;;;;;;;;4201327;28;20566;-75
2021/12/23 03:51:21;;;;;;;61.43;22.20;;;;;;;;;;4206156;28;20280;-75
2021/12/23 03:53:47;;;;;;;60.17;22.13;;;;;;;;;;4206858;28;20304;-75
2021/12/23 03:56:15;;;;;;;65.07;22.47;;;;;;;;;;4213022;28;20230;-75
2021/12/23 03:58:41;;;;;;;62.27;22.33;;;;;;;;;;4207686;28;20259;-75
2021/12/23 04:01:07;;;;;;;62.77;22.67;;;;;;;;;;4203924;28;22790;-78
2021/12/23 04:03:34;;;;;;;62.97;23.57;;;;;;;;;;4198358;28;20792;-76
2021/12/23 04:06:00;;;;;;;74.83;23.50;;;;;;;;;;4190254;28;20905;-77
2021/12/23 04:08:27;;;;;;;68.87;22.63;;;;;;;;;;4191479;28;23456;-75
2021/12/23 04:10:58;;;;;;;57.93;22.10;;;;;;;;;;4204883;28;20412;-75
2021/12/23 04:13:25;;;;;;;64.87;23.30;;;;;;;;;;4203748;28;20232;-74
2021/12/23 04:15:52;;;;;;;62.80;22.67;;;;;;;;;;4196668;28;20443;-75
2021/12/23 04:18:18;;;;;;;63.20;22.67;;;;;;;;;;4204264;28;21986;-75
2021/12/23 04:21:02;;;;;;;63.03;22.27;;;;;;;;;;4206984;28;20236;-74
2021/12/23 04:23:30;;;;;;;62.60;22.40;;;;;;;;;;4207155;28;20265;-76
2021/12/23 04:25:57;;;;;;;53.50;22.23;;;;;;;;;;4197243;28;20241;-75
2021/12/23 04:28:24;;;;;;;60.73;22.53;;;;;;;;;;4218617;28;20247;-75
2021/12/23 04:30:50;;;;;;;60.33;22.70;;;;;;;;;;4224285;28;20334;-75
2021/12/23 04:33:17;;;;;;;57.17;22.00;;;;;;;;;;4211856;28;20380;-79
2021/12/23 04:35:43;;;;;;;58.37;22.67;;;;;;;;;;4202346;28;20233;-75
2021/12/23 04:38:10;;;;;;;60.33;23.20;;;;;;;;;;4202846;28;20297;-76
2021/12/23 04:40:37;;;;;;;66.30;23.67;;;;;;;;;;4213544;28;21977;-76
2021/12/23 04:43:05;;;;;;;65.10;23.37;;;;;;;;;;4199971;28;20315;-73
2021/12/23 04:45:32;;;;;;;65.70;22.67;;;;;;;;;;4199933;28;20446;-76
2021/12/23 04:47:59;;;;;;;60.80;24.20;;;;;;;;;;4210184;28;20329;-75
2021/12/23 04:50:25;;;;;;;59.77;23.43;;;;;;;;;;4200039;28;20659;-77
2021/12/23 04:52:52;;;;;;;57.50;22.23;;;;;;;;;;4208361;28;20250;-75
2021/12/23 04:55:19;;;;;;;58.17;22.50;;;;;;;;;;4202179;28;20245;-74
2021/12/23 04:57:45;;;;;;;60.50;22.83;;;;;;;;;;4187560;28;20239;-78
2021/12/23 05:00:14;;;;;;;65.13;23.13;;;;;;;;;;4206333;28;20232;-79
2021/12/23 05:02:40;;;;;;;64.90;23.47;;;;;;;;;;4188468;28;20307;-75
2021/12/23 05:05:08;;;;;;;67.13;22.97;;;;;;;;;;4204162;28;20356;-78
2021/12/23 05:07:34;;;;;;;70.43;24.00;;;;;;;;;;4180771;28;21801;-74
2021/12/23 05:10:01;;;;;;;68.23;23.63;;;;;;;;;;4200862;28;22494;-76
2021/12/23 05:12:27;;;;;;;68.50;22.80;;;;;;;;;;4196738;28;22443;-78
2021/12/23 05:14:54;;;;;;;64.97;23.30;;;;;;;;;;4196452;28;20348;-76
2021/12/23 05:17:20;;;;;;;70.70;24.27;;;;;;;;;;4215184;28;20236;-74
2021/12/23 05:19:47;;;;;;;72.03;23.47;;;;;;;;;;4203831;28;21753;-74
2021/12/23 05:22:13;;;;;;;60.07;22.87;;;;;;;;;;4190088;28;21906;-76
2021/12/23 05:24:39;;;;;;;63.07;23.40;;;;;;;;;;4191002;28;23735;-73
2021/12/23 05:27:07;;;;;;;67.07;23.80;;;;;;;;;;4194416;28;20234;-74
2021/12/23 05:29:33;;;;;;;62.63;22.43;;;;;;;;;;4188334;28;23822;-74
2021/12/23 05:31:59;;;;;;;61.63;23.23;;;;;;;;;;4187564;28;20249;-75
2021/12/23 05:34:26;;;;;;;66.00;23.37;;;;;;;;;;4190583;28;20241;-77
2021/12/23 05:36:52;;;;;;;68.83;23.87;;;;;;;;;;4192637;28;20231;-72
2021/12/23 05:39:18;;;;;;;68.40;23.30;;;;;;;;;;4207157;28;20234;-76
2021/12/23 05:41:45;;;;;;;65.83;23.80;;;;;;;;;;4193297;28;20241;-75
2021/12/23 05:44:11;;;;;;;63.47;22.93;;;;;;;;;;4208099;28;20244;-76
2021/12/23 05:46:37;;;;;;;62.33;22.87;;;;;;;;;;4206615;28;20308;-74
2021/12/23 05:49:04;;;;;;;61.87;24.30;;;;;;;;;;4193784;28;22620;-75
2021/12/23 05:51:31;;;;;;;74.40;23.53;;;;;;;;;;4193158;28;20352;-68
2021/12/23 05:53:58;;;;;;;60.80;23.53;;;;;;;;;;4196538;28;20335;-74
2021/12/23 05:56:30;;;;;;;60.77;23.43;;;;;;;;;;4214303;28;20242;-73
2021/12/23 05:58:56;;;;;;;64.77;23.93;;;;;;;;;;4210781;28;22244;-71
2021/12/23 06:01:23;;;;;;;57.77;23.67;;;;;;;;;;4193338;28;20236;-71
2021/12/23 06:03:50;;;;;;;67.23;22.63;;;;;;;;;;4215644;28;20296;-73
2021/12/23 06:06:16;;;;;;;63.60;23.30;;;;;;;;;;4207360;28;20238;-72
2021/12/23 06:08:43;;;;;;;55.20;22.07;;;;;;;;;;4197165;28;21252;-71
2021/12/23 06:11:09;;;;;;;56.47;22.53;;;;;;;;;;4195162;28;20254;-70
2021/12/23 06:13:36;;;;;;;64.20;23.60;;;;;;;;;;4201498;28;20236;-71
2021/12/23 06:16:07;;;;;;;65.07;23.17;;;;;;;;;;4211417;28;20532;-71
2021/12/23 06:18:34;;;;;;;67.10;22.77;;;;;;;;;;4209513;28;23046;-70
2021/12/23 06:21:01;;;;;;;65.30;23.13;;;;;;;;;;4196269;28;21890;-72
2021/12/23 06:23:27;;;;;;;65.47;22.00;;;;;;;;;;4211740;28;20245;-75
2021/12/23 06:25:53;;;;;;;63.07;22.83;;;;;;;;;;4197995;28;20334;-72
2021/12/23 06:28:20;;;;;;;63.17;23.67;;;;;;;;;;4202359;28;20238;-72
2021/12/23 06:30:46;;;;;;;65.63;23.63;;;;;;;;;;4197135;28;20240;-72
2021/12/23 06:33:13;;;;;;;63.27;22.23;;;;;;;;;;4196375;28;20702;-72
2021/12/23 06:35:39;;;;;;;65.63;23.63;;;;;;;;;;4202369;28;20296;-72
2021/12/23 06:38:07;;;;;;;56.47;21.07;;;;;;;;;;4200282;28;20228;-72
2021/12/23 06:40:35;;;;;;;67.33;22.63;;;;;;;;;;4204026;28;20228;-71
2021/12/23 06:43:01;;;;;;;65.53;21.27;;;;;;;;;;4207371;28;20639;-75
2021/12/23 06:45:27;;;;;;;73.87;24.87;;;;;;;;;;4210597;28;21531;-70
2021/12/23 06:47:54;;;;;;;61.00;22.87;;;;;;;;;;4186429;28;25371;-73
2021/12/23 06:50:22;;;;;;;60.80;22.70;;;;;;;;;;4214403;28;20221;-72
2021/12/23 06:52:49;;;;;;;68.10;23.60;;;;;;;;;;4211828;28;20268;-71
2021/12/23 06:55:16;;;;;;;68.70;23.30;;;;;;;;;;4184694;28;20231;-73
2021/12/23 06:57:43;;;;;;;60.70;23.13;;;;;;;;;;4193585;28;20249;-72
2021/12/23 07:00:14;;;;;;;64.47;23.33;;;;;;;;;;4194641;28;20241;-72
2021/12/23 07:02:41;;;;;;;62.43;22.83;;;;;;;;;;4190925;28;20438;-72
2021/12/23 07:05:09;;;;;;;66.43;22.13;;;;;;;;;;4184814;28;22501;-71
2021/12/23 07:10:25;;;;;;;71.27;23.60;;;;;;;;;;4202264;28;20276;-71
2021/12/23 07:12:52;;;;;;;66.67;24.63;;;;;;;;;;4178308;28;20600;-71
2021/12/23 07:15:18;;;;;;;65.20;23.33;;;;;;;;;;4187857;28;20310;-73
2021/12/23 07:17:45;;;;;;;69.33;24.07;;;;;;;;;;4183420;28;23833;-70
2021/12/23 07:20:12;;;;;;;64.57;23.73;;;;;;;;;;4193546;28;22390;-68
2021/12/23 07:22:39;;;;;;;58.63;22.27;;;;;;;;;;4195610;28;21207;-69
2021/12/23 07:25:07;;;;;;;58.73;22.63;;;;;;;;;;4203814;28;20315;-70
2021/12/23 07:27:33;;;;;;;64.60;24.80;;;;;;;;;;4199355;28;20302;-68
2021/12/23 07:30:00;;;;;;;66.00;23.67;;;;;;;;;;4198376;28;20557;-69
2021/12/23 07:32:26;;;;;;;67.50;23.57;;;;;;;;;;4195773;28;20232;-69
2021/12/23 07:34:53;;;;;;;70.67;24.23;;;;;;;;;;4196412;28;21754;-68
2021/12/23 07:37:19;;;;;;;72.03;24.73;;;;;;;;;;4191290;28;20308;-70
2021/12/23 07:39:47;;;;;;;83.43;24.77;;;;;;;;;;4184293;28;25597;-70
2021/12/23 07:42:29;;;;;;;70.43;24.77;;;;;;;;;;4193700;28;21424;-68
2021/12/23 07:44:56;;;;;;;66.37;24.23;;;;;;;;;;4180252;28;20244;-70
2021/12/23 07:47:23;;;;;;;69.03;24.70;;;;;;;;;;4192660;28;20234;-70
2021/12/23 07:49:49;;;;;;;63.80;23.80;;;;;;;;;;4194571;28;23247;-71
2021/12/23 07:52:16;;;;;;;70.70;25.43;;;;;;;;;;4200858;28;20230;-67
2021/12/23 07:54:43;;;;;;;72.30;25.80;;;;;;;;;;4201104;28;20438;-69
2021/12/23 07:57:09;;;;;;;69.17;26.00;;;;;;;;;;4208600;28;20690;-68
2021/12/23 07:59:35;;;;;;;70.70;25.30;;;;;;;;;;4213613;28;20250;-71
2021/12/23 08:02:02;;;;;;;81.67;25.43;;;;;;;;;;4192108;28;20236;-70
2021/12/23 08:04:30;;;;;;;70.73;25.70;;;;;;;;;;4212116;28;20254;-71
2021/12/23 08:06:58;;;;;;;65.03;24.53;;;;;;;;;;4200858;28;20243;-71
2021/12/23 08:09:25;;;;;;;72.30;26.10;;;;;;;;;;4212978;28;20232;-71
2021/12/23 08:11:51;;;;;;;74.10;24.60;;;;;;;;;;4211781;28;20374;-74
2021/12/23 08:14:18;;;;;;;76.50;26.20;;;;;;;;;;4197710;28;20243;-74
2021/12/23 08:16:45;;;;;;;75.83;25.23;;;;;;;;;;4198431;28;20417;-73
2021/12/23 08:19:11;;;;;;;76.03;26.87;;;;;;;;;;4219418;28;20302;-72
2021/12/23 08:21:38;;;;;;;78.47;26.57;;;;;;;;;;4209002;28;22950;-73
2021/12/23 08:24:05;;;;;;;72.87;27.67;;;;;;;;;;4203261;28;20236;-72
2021/12/23 08:26:39;;;;;;;74.23;25.30;;;;;;;;;;4216345;28;21133;-76
2021/12/23 08:29:09;;;;;;;68.27;25.57;;;;;;;;;;4199890;28;20361;-70
2021/12/23 08:31:36;;;;;;;76.03;26.17;;;;;;;;;;4230253;28;21817;-73
2021/12/23 08:34:03;;;;;;;69.37;26.87;;;;;;;;;;4240314;28;23293;-71
2021/12/23 08:36:30;;;;;;;70.43;25.43;;;;;;;;;;4208134;28;22834;-70
2021/12/23 08:38:58;;;;;;;77.53;26.37;;;;;;;;;;4219160;28;20232;-72
2021/12/23 08:41:25;;;;;;;73.90;26.13;;;;;;;;;;4235433;28;20244;-73
2021/12/23 08:43:51;;;;;;;76.00;26.33;;;;;;;;;;4224032;28;21797;-70
2021/12/23 08:46:18;;;;;;;65.57;25.23;;;;;;;;;;4225540;28;20228;-72
2021/12/23 08:48:45;;;;;;;71.57;25.37;;;;;;;;;;4219121;28;20233;-72
2021/12/23 08:51:11;;;;;;;69.53;24.47;;;;;;;;;;4241686;28;20236;-74
2021/12/23 08:53:38;;;;;;;71.50;26.17;;;;;;;;;;4222785;28;22060;-74
2021/12/23 08:56:08;;;;;;;74.43;26.27;;;;;;;;;;4219730;28;20504;-70
2021/12/23 08:58:39;;;;;;;67.13;25.03;;;;;;;;;;4218816;28;20277;-72
2021/12/23 09:01:11;;;;;;;71.60;25.57;;;;;;;;;;4218520;28;21088;-74
2021/12/23 09:03:37;;;;;;;70.63;25.40;;;;;;;;;;4237136;28;21261;-71
2021/12/23 09:06:04;;;;;;;79.00;25.50;;;;;;;;;;4211558;28;22406;-73
2021/12/23 09:08:31;;;;;;;73.73;25.57;;;;;;;;;;4227145;28;20237;-74
2021/12/23 09:10:59;;;;;;;65.97;26.07;;;;;;;;;;4218174;28;20248;-72
2021/12/23 09:13:27;;;;;;;67.60;25.87;;;;;;;;;;4201596;28;22421;-75
2021/12/23 09:15:54;;;;;;;87.53;27.73;;;;;;;;;;4208805;28;20236;-77
2021/12/23 09:18:21;;;;;;;72.80;25.53;;;;;;;;;;4216659;28;20308;-73
2021/12/23 09:20:48;;;;;;;81.03;25.80;;;;;;;;;;4197290;28;20290;-72
2021/12/23 09:23:14;;;;;;;67.00;25.77;;;;;;;;;;4216068;28;20397;-75
2021/12/23 09:25:41;;;;;;;69.57;25.67;;;;;;;;;;4212746;28;23438;-71
2021/12/23 09:33:24;;;;;;;67.30;25.37;;;;;;;;;;4232068;28;20234;-71
2021/12/23 09:35:52;;;;;;;68.63;25.07;;;;;;;;;;4242540;28;20927;-71
2021/12/23 09:38:25;;;;;;;69.30;26.00;;;;;;;;;;4230765;28;20232;-72
2021/12/23 09:40:52;;;;;;;81.73;26.83;;;;;;;;;;4207459;28;20234;-71
2021/12/23 09:43:21;;;;;;;74.80;27.40;;;;;;;;;;4226436;28;22848;-71
2021/12/23 09:45:47;;;;;;;68.93;25.93;;;;;;;;;;4235565;28;22308;-70
2021/12/23 09:48:15;;;;;;;72.93;25.77;;;;;;;;;;4199099;28;20742;-71
2021/12/23 09:50:41;;;;;;;75.03;26.93;;;;;;;;;;4205760;28;23602;-70
2021/12/23 09:53:08;;;;;;;71.23;26.50;;;;;;;;;;4215316;28;20237;-69
2021/12/23 09:55:35;;;;;;;70.40;24.77;;;;;;;;;;4220988;28;20233;-75
2021/12/23 09:58:03;;;;;;;67.33;26.43;;;;;;;;;;4192460;28;20237;-69
2021/12/23 10:00:31;;;;;;;68.57;24.87;;;;;;;;;;4192756;28;22419;-69
2021/12/23 10:02:58;;;;;;;69.17;25.57;;;;;;;;;;4207445;28;20234;-72
2021/12/23 10:05:30;;;;;;;73.57;25.83;;;;;;;;;;4208831;28;20237;-71
2021/12/23 10:07:57;;;;;;;84.93;26.60;;;;;;;;;;4201002;28;20343;-69
2021/12/23 10:10:29;;;;;;;90.53;29.93;;;;;;;;;;4206837;28;20332;-69
2021/12/23 10:38:05;;;;;;;76.20;24.83;;;;;;;;;;4222787;28;20310;-72
2021/12/23 10:40:32;;;;;;;70.80;24.43;;;;;;;;;;4194479;28;21291;-71
2021/12/23 10:42:59;;;;;;;63.83;22.80;;;;;;;;;;4205972;28;20304;-70
2021/12/23 10:45:32;;;;;;;71.87;24.97;;;;;;;;;;4191750;28;20617;-71
2021/12/23 10:48:04;;;;;;;67.10;24.60;;;;;;;;;;4196815;28;21811;-71
2021/12/23 10:50:40;;;;;;;61.77;24.03;;;;;;;;;;4207122;28;20238;-70
2021/12/23 10:53:14;;;;;;;60.93;23.47;;;;;;;;;;4194156;28;20298;-70
2021/12/23 10:58:26;;;;;;;67.43;24.53;;;;;;;;;;4204452;28;20231;-68
2021/12/23 11:00:54;;;;;;;62.63;23.13;;;;;;;;;;4220173;28;20267;-70
2021/12/23 11:03:32;;;;;;;69.60;23.10;;;;;;;;;;4211937;28;22803;-71
2021/12/23 11:06:08;;;;;;;58.67;22.60;;;;;;;;;;4197162;28;20232;-69
2021/12/23 11:08:48;;;;;;;63.53;23.93;;;;;;;;;;4199462;28;20663;-68
2021/12/23 11:28:20;;;;;;;57.97;22.33;;;;;;;;;;4203360;28;20272;-70
2021/12/23 11:32:04;;;;;;;56.77;21.37;;;;;;;;;;4211962;28;21716;-55
2021/12/23 11:39:26;;;;;;;59.77;23.93;;;;;;;;;;4206787;28;20360;-70
2021/12/23 11:42:15;;;;;;;65.17;22.97;;;;;;;;;;4198715;28;22958;-72
2021/12/23 11:44:42;;;;;;;55.13;21.77;;;;;;;;;;4199348;28;20227;-72
2021/12/23 11:47:14;;;;;;;52.63;21.60;;;;;;;;;;4238793;28;20279;-71
2021/12/23 11:49:44;;;;;;;55.67;22.33;;;;;;;;;;4226603;28;20235;-72
2021/12/23 11:52:11;;;;;;;63.17;22.77;;;;;;;;;;4200681;28;21871;-72
2021/12/23 11:54:46;;;;;;;57.27;22.23;;;;;;;;;;4220622;28;20237;-71
2021/12/23 11:57:15;;;;;;;50.67;19.63;;;;;;;;;;4224317;28;21260;-71
2021/12/23 11:59:44;;;;;;;53.50;21.67;;;;;;;;;;4218542;28;21871;-71
2021/12/23 12:02:14;;;;;;;54.67;20.83;;;;;;;;;;4222788;28;20859;-71
2021/12/23 12:04:42;;;;;;;47.37;19.43;;;;;;;;;;4210168;28;20320;-71
2021/12/23 12:07:26;;;;;;;50.33;20.80;;;;;;;;;;4209925;28;20224;-71
2021/12/23 12:09:53;;;;;;;54.13;19.77;;;;;;;;;;4235908;28;20282;-73
2021/12/23 12:12:20;;;;;;;51.33;20.17;;;;;;;;;;4218418;28;20288;-71
2021/12/23 12:14:47;;;;;;;64.47;25.37;;;;;;;;;;4236969;28;20236;-70
2021/12/23 12:17:26;;;;;;;64.77;22.27;;;;;;;;;;4243393;28;20241;-71
2021/12/23 12:19:58;;;;;;;63.67;21.43;;;;;;;;;;4209970;28;20401;-72
2021/12/23 12:22:43;;;;;;;62.70;23.17;;;;;;;;;;4226456;28;20257;-71
2021/12/23 12:25:09;;;;;;;54.80;21.97;;;;;;;;;;4205355;28;20232;-71
2021/12/23 12:27:38;;;;;;;52.67;20.33;;;;;;;;;;4196575;28;20233;-70
2021/12/23 12:30:10;;;;;;;44.77;19.27;;;;;;;;;;4200844;28;21681;-71
2021/12/23 12:32:37;;;;;;;48.73;19.73;;;;;;;;;;4245470;28;20306;-71
2021/12/23 12:35:19;;;;;;;51.90;20.17;;;;;;;;;;4249098;28;20724;-71
2021/12/23 12:37:50;;;;;;;51.77;20.10;;;;;;;;;;4217093;28;20236;-71
2021/12/23 12:40:17;;;;;;;53.07;19.87;;;;;;;;;;4226819;28;20335;-72
2021/12/23 12:42:47;;;;;;;51.17;19.73;;;;;;;;;;4227135;28;20327;-71
2021/12/23 12:45:23;;;;;;;59.27;20.97;;;;;;;;;;4277413;28;21615;-72
2021/12/23 12:47:56;;;;;;;63.47;24.73;;;;;;;;;;4228620;28;21904;-70
2021/12/23 12:50:26;;;;;;;61.00;21.23;;;;;;;;;;4214603;28;21820;-71
2021/12/23 12:52:59;;;;;;;57.70;19.43;;;;;;;;;;4210682;28;25775;-71
2021/12/23 12:55:26;;;;;;;55.87;19.17;;;;;;;;;;4197572;28;20236;-71
2021/12/23 12:57:55;;;;;;;53.47;19.47;;;;;;;;;;4213929;28;20386;-71
2021/12/23 13:00:28;;;;;;;53.00;20.10;;;;;;;;;;4194389;28;20299;-72
2021/12/23 13:02:54;;;;;;;47.90;17.17;;;;;;;;;;4202984;28;20245;-72
2021/12/23 13:05:32;;;;;;;48.00;18.53;;;;;;;;;;4215706;28;21272;-71
2021/12/23 13:08:05;;;;;;;53.00;17.27;;;;;;;;;;4199127;28;22108;-75
2021/12/23 13:10:33;;;;;;;47.30;17.00;;;;;;;;;;4197828;28;22387;-76
2021/12/23 13:13:04;;;;;;;40.10;15.63;;;;;;;;;;4205446;28;21218;-74
2021/12/23 13:15:33;;;;;;;52.10;16.77;;;;;;;;;;4213608;28;20284;-72
2021/12/23 13:17:59;;;;;;;39.83;16.07;;;;;;;;;;4187704;28;20291;-72
2021/12/23 13:20:34;;;;;;;36.60;14.30;;;;;;;;;;4205190;28;20424;-71
2021/12/23 13:23:03;;;;;;;38.00;14.50;;;;;;;;;;4194428;28;21146;-73
2021/12/23 13:25:30;;;;;;;39.53;15.43;;;;;;;;;;4203423;28;20239;-74
2021/12/23 13:27:56;;;;;;;42.93;15.07;;;;;;;;;;4200902;28;20318;-74
2021/12/23 13:30:23;;;;;;;36.47;14.60;;;;;;;;;;4211409;28;20238;-70
2021/12/23 13:32:56;;;;;;;37.43;14.93;;;;;;;;;;4194479;28;22483;-72
2021/12/23 13:35:23;;;;;;;36.60;13.83;;;;;;;;;;4225762;28;20244;-73
2021/12/23 13:37:49;;;;;;;42.17;15.80;;;;;;;;;;4217449;28;23063;-70
2021/12/23 13:40:26;;;;;;;40.87;15.10;;;;;;;;;;4187431;28;21882;-71
2021/12/23 13:42:53;;;;;;;41.13;16.20;;;;;;;;;;4199284;28;21465;-69
2021/12/23 13:45:20;;;;;;;39.93;15.03;;;;;;;;;;4215149;28;20228;-72
2021/12/23 13:47:50;;;;;;;51.53;18.73;;;;;;;;;;4212150;28;20229;-72
2021/12/23 13:50:20;;;;;;;44.37;15.60;;;;;;;;;;4182502;28;20281;-70
2021/12/23 13:52:49;;;;;;;42.90;16.00;;;;;;;;;;4212779;28;20638;-70
2021/12/23 13:55:17;;;;;;;49.07;17.33;;;;;;;;;;4208103;28;20256;-71
2021/12/23 13:57:51;;;;;;;41.13;16.43;;;;;;;;;;4189293;28;20350;-70
2021/12/23 14:00:19;;;;;;;45.50;17.10;;;;;;;;;;4194285;28;20376;-71
2021/12/23 14:02:50;;;;;;;47.77;16.10;;;;;;;;;;4214396;28;20481;-71
2021/12/23 14:05:18;;;;;;;43.03;15.30;;;;;;;;;;4212440;28;20233;-69
2021/12/23 14:07:46;;;;;;;42.87;15.77;;;;;;;;;;4198536;28;20240;-69
2021/12/23 14:10:17;;;;;;;39.17;15.17;;;;;;;;;;4218357;28;20241;-71
2021/12/23 14:12:48;;;;;;;51.07;14.63;;;;;;;;;;4196538;28;20230;-69
2021/12/23 14:15:16;;;;;;;49.30;16.30;;;;;;;;;;4244089;28;20267;-71
2021/12/23 14:17:45;;;;;;;44.47;16.90;;;;;;;;;;4210030;28;21282;-69
2021/12/23 14:23:12;;;;;;;37.57;14.87;;;;;;;;;;4215665;28;20241;-71
2021/12/23 14:25:40;;;;;;;35.83;14.43;;;;;;;;;;4206759;28;21584;-73
2021/12/23 14:28:08;;;;;;;43.97;15.03;;;;;;;;;;4240764;28;20619;-71
2021/12/23 14:30:39;;;;;;;41.93;14.80;;;;;;;;;;4210126;28;20260;-70
2021/12/23 14:33:09;;;;;;;41.17;15.97;;;;;;;;;;4190484;28;20566;-71
2021/12/23 14:35:36;;;;;;;42.47;16.10;;;;;;;;;;4199863;28;25550;-71
2021/12/23 14:38:03;;;;;;;41.37;15.87;;;;;;;;;;4206072;28;20343;-73
2021/12/23 14:40:33;;;;;;;36.43;14.23;;;;;;;;;;4199602;28;20229;-69
2021/12/23 14:43:00;;;;;;;35.73;14.63;;;;;;;;;;4206126;28;20233;-72
2021/12/23 14:45:28;;;;;;;41.63;15.87;;;;;;;;;;4197421;28;20237;-73
2021/12/23 14:47:58;;;;;;;38.53;16.13;;;;;;;;;;4204049;28;20238;-70
2021/12/23 14:50:26;;;;;;;38.33;14.93;;;;;;;;;;4204021;28;20234;-70
2021/12/23 14:52:57;;;;;;;36.40;14.20;;;;;;;;;;4204567;28;21267;-70
2021/12/23 14:55:25;;;;;;;35.03;14.50;;;;;;;;;;4222587;28;21549;-73
2021/12/23 14:57:52;;;;;;;44.23;15.93;;;;;;;;;;4202986;28;21265;-72
2021/12/23 15:00:29;;;;;;;37.60;15.10;;;;;;;;;;4245613;28;23434;-73
2021/12/23 15:03:19;;;;;;;35.10;13.90;;;;;;;;;;4217446;28;20649;-72
2021/12/23 15:05:47;;;;;;;41.33;14.63;;;;;;;;;;4202451;28;24494;-72
2021/12/23 15:08:21;;;;;;;45.37;15.57;;;;;;;;;;4179095;28;20257;-71
2021/12/23 15:10:52;;;;;;;41.70;14.93;;;;;;;;;;4192880;28;26386;-73
2021/12/23 15:13:20;;;;;;;40.57;15.17;;;;;;;;;;4195568;28;20230;-72
2021/12/23 15:15:55;;;;;;;40.87;15.93;;;;;;;;;;4195522;28;20252;-73
2021/12/23 15:18:35;;;;;;;39.50;14.67;;;;;;;;;;4199133;28;20265;-72
2021/12/23 15:21:09;;;;;;;43.83;16.90;;;;;;;;;;4189220;28;20328;-72
2021/12/23 15:23:37;;;;;;;40.63;18.03;;;;;;;;;;4199574;28;21133;-71
2021/12/23 15:26:18;;;;;;;49.93;18.37;;;;;;;;;;4185512;28;21160;-75
2021/12/23 15:29:01;;;;;;;49.30;19.67;;;;;;;;;;4181513;28;20285;-72
2021/12/23 15:31:27;;;;;;;52.30;20.00;;;;;;;;;;4190505;28;20383;-74
2021/12/23 15:33:54;;;;;;;59.90;22.13;;;;;;;;;;4191068;28;22527;-72